Time;durP1;ratioP1;P1;durP2;ratioP2;P2;SDS_P1;SDS_P2;PMS_P1;PMS_P2;Temp;Humidity;BMP_temperature;BMP_pressure;BME280_temperature;BME280_humidity;BME280_pressure;Samples;Min_cycle;Max_cycle;Signal;HPM_P1;HPM_P2
2023/06/03 00:01:47;;;;;;;2.63;1.70;;;;;;;;;;5090948;28;20448;-71
2023/06/03 00:04:16;;;;;;;2.10;1.80;;;;;;;;;;5091295;28;20855;-68
2023/06/03 00:06:43;;;;;;;3.63;1.37;;;;;;;;;;5090967;28;20472;-69
2023/06/03 00:09:11;;;;;;;6.07;2.50;;;;;;;;;;5090563;28;20445;-70
2023/06/03 00:11:38;;;;;;;5.67;1.77;;;;;;;;;;5090730;28;20441;-70
2023/06/03 00:14:06;;;;;;;2.37;1.43;;;;;;;;;;5091026;28;20452;-70
2023/06/03 00:16:36;;;;;;;2.60;2.23;;;;;;;;;;5090716;28;20514;-70
2023/06/03 00:19:03;;;;;;;6.10;2.20;;;;;;;;;;5090820;28;20459;-70
2023/06/03 00:21:31;;;;;;;4.70;2.23;;;;;;;;;;5090617;28;20803;-71
2023/06/03 00:23:58;;;;;;;4.40;2.13;;;;;;;;;;5091241;28;20451;-70
2023/06/03 00:26:26;;;;;;;4.43;2.07;;;;;;;;;;5090614;28;20483;-70
2023/06/03 00:28:53;;;;;;;4.43;1.60;;;;;;;;;;5090807;28;20448;-71
2023/06/03 00:31:20;;;;;;;4.03;1.93;;;;;;;;;;5090024;28;20448;-70
2023/06/03 00:33:47;;;;;;;4.63;1.70;;;;;;;;;;5090488;28;20697;-70
2023/06/03 00:36:15;;;;;;;2.70;1.90;;;;;;;;;;5090586;28;20477;-70
2023/06/03 00:38:42;;;;;;;1.77;1.20;;;;;;;;;;5089647;28;20940;-70
2023/06/03 00:41:09;;;;;;;2.30;1.50;;;;;;;;;;5090878;28;20444;-70
2023/06/03 00:43:37;;;;;;;1.80;1.30;;;;;;;;;;5090272;28;20444;-70
2023/06/03 00:46:04;;;;;;;4.00;2.37;;;;;;;;;;5090815;28;20452;-70
2023/06/03 00:48:31;;;;;;;5.40;2.17;;;;;;;;;;5089882;28;20456;-71
2023/06/03 00:50:59;;;;;;;2.80;1.80;;;;;;;;;;5090376;28;20441;-71
2023/06/03 00:53:27;;;;;;;2.63;1.70;;;;;;;;;;5090948;28;20451;-70
2023/06/03 00:55:54;;;;;;;3.00;1.80;;;;;;;;;;5090576;28;20979;-70
2023/06/03 00:58:21;;;;;;;5.00;2.00;;;;;;;;;;5090566;28;20449;-70
2023/06/03 01:00:50;;;;;;;2.00;1.50;;;;;;;;;;5089640;28;21050;-70
2023/06/03 01:03:19;;;;;;;1.40;1.20;;;;;;;;;;5090629;28;20452;-70
2023/06/03 01:05:50;;;;;;;4.33;2.03;;;;;;;;;;5090116;28;20482;-70
2023/06/03 01:08:21;;;;;;;3.23;1.80;;;;;;;;;;5090040;28;20912;-70
2023/06/03 01:10:51;;;;;;;3.63;2.17;;;;;;;;;;5090287;28;20452;-70
2023/06/03 01:13:22;;;;;;;7.07;2.43;;;;;;;;;;5090609;28;20452;-70
2023/06/03 01:15:53;;;;;;;2.97;2.00;;;;;;;;;;5089760;28;20476;-70
2023/06/03 01:18:21;;;;;;;3.50;2.13;;;;;;;;;;5090042;28;20469;-70
2023/06/03 01:20:49;;;;;;;2.40;1.70;;;;;;;;;;5089960;28;20449;-70
2023/06/03 01:23:23;;;;;;;4.17;2.10;;;;;;;;;;5090475;28;20440;-71
2023/06/03 01:25:52;;;;;;;2.13;1.67;;;;;;;;;;5089803;28;20935;-70
2023/06/03 01:28:20;;;;;;;2.37;1.93;;;;;;;;;;5089376;28;20484;-70
2023/06/03 01:30:47;;;;;;;4.10;1.90;;;;;;;;;;5089591;28;20957;-70
2023/06/03 01:33:14;;;;;;;3.53;2.40;;;;;;;;;;5090335;28;20447;-70
2023/06/03 01:35:42;;;;;;;1.93;1.73;;;;;;;;;;5089603;28;20499;-70
2023/06/03 01:38:09;;;;;;;2.87;2.20;;;;;;;;;;5089379;28;20957;-70
2023/06/03 01:40:39;;;;;;;4.13;1.93;;;;;;;;;;5089784;28;20443;-70
2023/06/03 01:43:06;;;;;;;5.17;1.77;;;;;;;;;;5091652;28;20482;-70
2023/06/03 01:45:33;;;;;;;3.83;2.20;;;;;;;;;;5093427;28;20986;-70
2023/06/03 01:48:01;;;;;;;5.40;2.27;;;;;;;;;;5093691;28;20452;-70
2023/06/03 01:50:28;;;;;;;4.90;2.57;;;;;;;;;;5093363;28;20453;-71
2023/06/03 01:52:55;;;;;;;3.30;1.83;;;;;;;;;;5094067;28;20451;-69
2023/06/03 01:55:22;;;;;;;2.63;2.03;;;;;;;;;;5093636;28;21003;-70
2023/06/03 01:57:51;;;;;;;4.57;2.40;;;;;;;;;;5093405;28;20472;-70
2023/06/03 02:00:19;;;;;;;3.40;1.83;;;;;;;;;;5093546;28;20487;-70
2023/06/03 02:02:46;;;;;;;3.80;1.70;;;;;;;;;;5092944;28;20454;-70
2023/06/03 02:05:13;;;;;;;3.00;2.10;;;;;;;;;;5093507;28;20460;-70
2023/06/03 02:07:40;;;;;;;2.27;1.70;;;;;;;;;;5092931;28;20772;-70
2023/06/03 02:10:07;;;;;;;3.77;2.50;;;;;;;;;;5093094;28;20447;-70
2023/06/03 02:12:34;;;;;;;2.53;1.90;;;;;;;;;;5092581;28;20885;-70
2023/06/03 02:15:03;;;;;;;4.90;2.57;;;;;;;;;;5093640;28;20484;-70
2023/06/03 02:17:30;;;;;;;2.30;1.63;;;;;;;;;;5092680;28;20935;-71
2023/06/03 02:19:58;;;;;;;2.50;1.93;;;;;;;;;;5093101;28;20475;-70
2023/06/03 02:22:26;;;;;;;2.77;2.00;;;;;;;;;;5079464;28;20449;-70
2023/06/03 02:24:57;;;;;;;4.43;2.30;;;;;;;;;;5093166;28;20476;-70
2023/06/03 02:27:24;;;;;;;3.93;2.00;;;;;;;;;;5093200;28;20481;-70
2023/06/03 02:29:52;;;;;;;1.77;1.37;;;;;;;;;;5091994;28;20448;-70
2023/06/03 02:32:20;;;;;;;3.50;2.40;;;;;;;;;;5092673;28;20448;-70
2023/06/03 02:34:50;;;;;;;3.30;2.03;;;;;;;;;;5092354;28;20712;-70
2023/06/03 02:37:17;;;;;;;4.10;2.27;;;;;;;;;;5092941;28;20794;-70
2023/06/03 02:39:44;;;;;;;2.90;2.00;;;;;;;;;;5091860;28;20445;-70
2023/06/03 02:42:12;;;;;;;4.97;2.43;;;;;;;;;;5092835;28;20453;-70
2023/06/03 02:44:39;;;;;;;9.40;2.00;;;;;;;;;;5091818;28;20441;-70
2023/06/03 02:47:06;;;;;;;3.33;2.00;;;;;;;;;;5092712;28;20442;-70
2023/06/03 02:49:36;;;;;;;3.83;2.10;;;;;;;;;;5091757;28;20445;-70
2023/06/03 02:52:03;;;;;;;4.87;2.00;;;;;;;;;;5092300;28;20440;-70
2023/06/03 02:54:30;;;;;;;4.83;2.30;;;;;;;;;;5091616;28;20452;-69
2023/06/03 02:56:57;;;;;;;2.60;1.90;;;;;;;;;;5092862;28;20496;-69
2023/06/03 02:59:24;;;;;;;4.10;2.07;;;;;;;;;;5091947;28;20452;-69
2023/06/03 03:01:51;;;;;;;2.67;2.17;;;;;;;;;;5091854;28;20992;-69
2023/06/03 03:04:20;;;;;;;2.20;1.80;;;;;;;;;;5092464;28;20471;-69
2023/06/03 03:06:49;;;;;;;2.43;1.53;;;;;;;;;;5091980;28;20452;-69
2023/06/03 03:09:16;;;;;;;3.73;1.80;;;;;;;;;;5091906;28;20483;-69
2023/06/03 03:11:43;;;;;;;1.97;1.67;;;;;;;;;;5091447;28;20456;-69
2023/06/03 03:14:10;;;;;;;3.67;2.40;;;;;;;;;;5091952;28;20444;-70
2023/06/03 03:16:38;;;;;;;2.40;2.10;;;;;;;;;;5091852;28;20476;-69
2023/06/03 03:19:05;;;;;;;3.13;2.20;;;;;;;;;;5091515;28;21021;-70
2023/06/03 03:21:33;;;;;;;2.57;1.93;;;;;;;;;;5091531;28;20478;-70
2023/06/03 03:24:02;;;;;;;3.07;2.20;;;;;;;;;;5092169;28;20536;-70
2023/06/03 03:26:29;;;;;;;2.97;1.80;;;;;;;;;;5091098;28;20445;-69
2023/06/03 03:28:57;;;;;;;2.73;1.77;;;;;;;;;;5091495;28;20444;-69
2023/06/03 03:31:26;;;;;;;2.47;1.90;;;;;;;;;;5092237;28;20440;-70
2023/06/03 03:33:53;;;;;;;2.63;1.93;;;;;;;;;;5091555;28;21015;-69
2023/06/03 03:36:22;;;;;;;5.77;2.00;;;;;;;;;;5091881;28;20484;-69
2023/06/03 03:38:52;;;;;;;3.07;1.60;;;;;;;;;;5090878;28;20461;-69
2023/06/03 03:41:21;;;;;;;5.23;2.57;;;;;;;;;;5091717;28;20448;-69
2023/06/03 03:43:51;;;;;;;4.83;2.27;;;;;;;;;;5091350;28;20448;-69
2023/06/03 03:46:18;;;;;;;3.10;2.20;;;;;;;;;;5091460;28;21323;-69
2023/06/03 03:48:45;;;;;;;4.10;2.00;;;;;;;;;;5090754;28;20445;-69
2023/06/03 03:51:13;;;;;;;2.97;1.80;;;;;;;;;;5091812;28;20471;-69
2023/06/03 03:53:44;;;;;;;2.40;1.77;;;;;;;;;;5090858;28;20959;-70
2023/06/03 03:56:12;;;;;;;1.90;1.20;;;;;;;;;;5091155;28;20480;-70
2023/06/03 03:58:42;;;;;;;3.13;1.80;;;;;;;;;;5090388;28;20461;-70
2023/06/03 04:01:12;;;;;;;2.77;1.80;;;;;;;;;;5091054;28;20919;-69
2023/06/03 04:03:40;;;;;;;3.20;2.27;;;;;;;;;;5090782;28;20447;-70
2023/06/03 04:06:08;;;;;;;4.63;3.13;;;;;;;;;;5090237;28;20995;-69
2023/06/03 04:08:39;;;;;;;9.93;2.40;;;;;;;;;;5090373;28;20444;-70
2023/06/03 04:11:07;;;;;;;4.20;2.27;;;;;;;;;;5091594;28;20806;-70
2023/06/03 04:13:35;;;;;;;4.23;2.30;;;;;;;;;;5090872;28;20451;-69
2023/06/03 04:16:04;;;;;;;4.00;2.67;;;;;;;;;;5090830;28;21018;-69
2023/06/03 04:18:32;;;;;;;10.93;2.17;;;;;;;;;;5090276;28;20441;-70
2023/06/03 04:21:00;;;;;;;3.53;1.80;;;;;;;;;;5091180;28;20440;-69
2023/06/03 04:23:29;;;;;;;2.83;1.90;;;;;;;;;;5091201;28;20449;-69
2023/06/03 04:25:56;;;;;;;5.73;2.10;;;;;;;;;;5091190;28;20452;-69
2023/06/03 04:28:23;;;;;;;4.80;3.07;;;;;;;;;;5090115;28;20479;-69
2023/06/03 04:30:50;;;;;;;3.60;2.07;;;;;;;;;;5090490;28;20448;-69
2023/06/03 04:33:18;;;;;;;4.10;2.10;;;;;;;;;;5090927;28;20444;-69
2023/06/03 04:35:45;;;;;;;4.77;2.40;;;;;;;;;;5090338;28;20854;-69
2023/06/03 04:38:12;;;;;;;3.00;2.00;;;;;;;;;;5090608;28;20463;-69
2023/06/03 04:40:39;;;;;;;3.23;2.27;;;;;;;;;;5090038;28;20931;-69
2023/06/03 04:43:07;;;;;;;3.43;2.20;;;;;;;;;;5090933;28;20463;-69
2023/06/03 04:45:35;;;;;;;3.10;2.07;;;;;;;;;;5090037;28;20451;-70
2023/06/03 04:48:02;;;;;;;2.90;2.40;;;;;;;;;;5090449;28;20444;-70
2023/06/03 04:50:34;;;;;;;7.20;4.00;;;;;;;;;;5090055;28;20456;-71
2023/06/03 04:53:01;;;;;;;3.57;2.20;;;;;;;;;;5090596;28;20444;-70
2023/06/03 04:55:30;;;;;;;4.50;2.90;;;;;;;;;;5090287;28;20452;-71
2023/06/03 04:58:00;;;;;;;3.77;2.33;;;;;;;;;;5090134;28;20455;-70
2023/06/03 05:00:27;;;;;;;3.90;2.57;;;;;;;;;;5091104;28;20456;-69
2023/06/03 05:02:59;;;;;;;4.07;1.87;;;;;;;;;;5090646;28;20440;-69
2023/06/03 05:05:27;;;;;;;4.77;1.90;;;;;;;;;;5090785;28;20437;-70
2023/06/03 05:07:56;;;;;;;3.53;2.17;;;;;;;;;;5090317;28;20444;-70
2023/06/03 05:10:23;;;;;;;2.00;1.67;;;;;;;;;;5090762;28;20463;-69
2023/06/03 05:12:50;;;;;;;3.57;1.77;;;;;;;;;;5089987;28;20824;-70
2023/06/03 05:15:19;;;;;;;3.10;1.93;;;;;;;;;;5090458;28;20468;-70
2023/06/03 05:17:46;;;;;;;2.57;1.53;;;;;;;;;;5090775;28;20484;-69
2023/06/03 05:20:13;;;;;;;3.63;2.00;;;;;;;;;;5094390;28;20456;-69
2023/06/03 05:22:40;;;;;;;4.00;2.10;;;;;;;;;;5094014;28;20514;-69
2023/06/03 05:25:09;;;;;;;3.60;1.90;;;;;;;;;;5094278;28;20448;-69
2023/06/03 05:27:36;;;;;;;4.33;2.27;;;;;;;;;;5093734;28;21009;-69
2023/06/03 05:30:03;;;;;;;5.23;2.77;;;;;;;;;;5093834;28;20452;-69
2023/06/03 05:32:30;;;;;;;2.67;1.70;;;;;;;;;;5093805;28;20455;-69
2023/06/03 05:34:57;;;;;;;2.43;1.60;;;;;;;;;;5094488;28;20491;-69
2023/06/03 05:37:24;;;;;;;3.70;2.00;;;;;;;;;;5094142;28;20480;-69
2023/06/03 05:39:51;;;;;;;2.73;1.50;;;;;;;;;;5093406;28;20471;-69
2023/06/03 05:42:20;;;;;;;3.67;2.17;;;;;;;;;;5094514;28;20449;-69
2023/06/03 05:44:47;;;;;;;8.77;2.20;;;;;;;;;;5093504;28;20455;-69
2023/06/03 05:47:14;;;;;;;3.50;1.90;;;;;;;;;;5094335;28;20453;-69
2023/06/03 05:49:41;;;;;;;2.17;1.80;;;;;;;;;;5093147;28;20444;-69
2023/06/03 05:52:08;;;;;;;3.70;2.23;;;;;;;;;;5093889;28;20456;-69
2023/06/03 05:54:36;;;;;;;2.70;1.97;;;;;;;;;;5093663;28;20445;-69
2023/06/03 05:57:03;;;;;;;3.67;2.00;;;;;;;;;;5093454;28;20514;-69
2023/06/03 05:59:31;;;;;;;4.10;2.10;;;;;;;;;;5093033;28;20544;-69
2023/06/03 06:01:58;;;;;;;3.50;1.83;;;;;;;;;;5094094;28;20813;-69
2023/06/03 06:04:25;;;;;;;4.87;2.30;;;;;;;;;;5093999;28;20444;-69
2023/06/03 06:06:52;;;;;;;3.50;2.13;;;;;;;;;;5093604;28;20463;-69
2023/06/03 06:09:20;;;;;;;3.57;2.10;;;;;;;;;;5093155;28;20447;-69
2023/06/03 06:11:47;;;;;;;3.10;1.80;;;;;;;;;;5093296;28;20456;-69
2023/06/03 06:14:14;;;;;;;4.37;2.80;;;;;;;;;;5093409;28;20444;-69
2023/06/03 06:16:42;;;;;;;5.83;2.10;;;;;;;;;;5093150;28;20484;-69
2023/06/03 06:19:09;;;;;;;3.17;2.00;;;;;;;;;;5093312;28;20452;-69
2023/06/03 06:21:37;;;;;;;3.77;2.00;;;;;;;;;;5092668;28;20452;-69
2023/06/03 06:24:04;;;;;;;2.83;1.60;;;;;;;;;;5093610;28;20843;-69
2023/06/03 06:26:31;;;;;;;4.13;2.00;;;;;;;;;;5092493;28;20946;-69
2023/06/03 06:28:59;;;;;;;4.30;1.90;;;;;;;;;;5091949;28;20452;-69
2023/06/03 06:31:26;;;;;;;4.13;2.10;;;;;;;;;;5093497;28;20449;-69
2023/06/03 06:33:55;;;;;;;3.23;1.87;;;;;;;;;;5093095;28;20453;-69
2023/06/03 06:36:32;;;;;;;8.53;2.83;;;;;;;;;;5093039;28;20507;-69
2023/06/03 06:38:59;;;;;;;8.73;2.10;;;;;;;;;;5092502;28;20944;-69
2023/06/03 06:41:27;;;;;;;3.43;2.23;;;;;;;;;;5092673;28;20928;-69
2023/06/03 06:43:55;;;;;;;3.63;2.40;;;;;;;;;;5092819;28;20445;-69
2023/06/03 06:46:22;;;;;;;3.40;2.17;;;;;;;;;;5092489;28;20452;-69
2023/06/03 06:48:50;;;;;;;4.80;1.70;;;;;;;;;;5091401;28;20457;-69
2023/06/03 06:51:19;;;;;;;3.77;1.90;;;;;;;;;;5092557;28;20811;-69
2023/06/03 06:53:48;;;;;;;2.63;1.70;;;;;;;;;;5091819;28;20455;-69
2023/06/03 06:56:16;;;;;;;3.00;1.87;;;;;;;;;;5092096;28;20850;-69
2023/06/03 06:58:44;;;;;;;2.97;1.90;;;;;;;;;;5091592;28;20443;-69
2023/06/03 07:01:11;;;;;;;2.80;1.60;;;;;;;;;;5092410;28;20445;-69
2023/06/03 07:03:38;;;;;;;3.23;2.07;;;;;;;;;;5091616;28;20952;-69
2023/06/03 07:06:05;;;;;;;4.20;2.43;;;;;;;;;;5092024;28;20456;-69
2023/06/03 07:08:34;;;;;;;3.00;1.83;;;;;;;;;;5091473;28;20449;-70
2023/06/03 07:11:02;;;;;;;3.87;1.80;;;;;;;;;;5092120;28;20956;-69
2023/06/03 07:13:29;;;;;;;2.47;1.93;;;;;;;;;;5091662;28;20452;-70
2023/06/03 07:15:56;;;;;;;2.57;1.50;;;;;;;;;;5092503;28;20850;-69
2023/06/03 07:18:25;;;;;;;2.60;1.70;;;;;;;;;;5091589;28;21063;-70
2023/06/03 07:20:52;;;;;;;3.10;2.80;;;;;;;;;;5092121;28;20551;-70
2023/06/03 07:23:21;;;;;;;2.43;1.93;;;;;;;;;;5091699;28;20511;-70
2023/06/03 07:25:50;;;;;;;3.40;2.87;;;;;;;;;;5091785;28;20816;-69
2023/06/03 07:28:18;;;;;;;4.33;1.97;;;;;;;;;;5091728;28;20971;-69
2023/06/03 07:30:45;;;;;;;2.33;1.67;;;;;;;;;;5091236;28;20455;-70
2023/06/03 07:33:22;;;;;;;3.87;2.20;;;;;;;;;;5091842;28;20441;-70
2023/06/03 07:35:53;;;;;;;7.73;2.47;;;;;;;;;;5091520;28;20801;-70
2023/06/03 07:38:29;;;;;;;3.37;2.43;;;;;;;;;;5091254;28;20816;-70
2023/06/03 07:40:57;;;;;;;2.73;2.10;;;;;;;;;;5091880;28;20457;-70
2023/06/03 07:43:24;;;;;;;2.57;2.13;;;;;;;;;;5091801;28;20794;-69
2023/06/03 07:45:51;;;;;;;4.63;2.80;;;;;;;;;;5091064;28;20444;-69
2023/06/03 07:48:18;;;;;;;3.73;1.73;;;;;;;;;;5091359;28;20464;-69
2023/06/03 07:50:47;;;;;;;2.30;1.70;;;;;;;;;;5090989;28;20468;-69
2023/06/03 07:53:22;;;;;;;3.83;2.00;;;31.00;1.00;;;;;;5091181;28;20456;-69
2023/06/03 07:55:50;;;;;;;2.00;1.70;;;18.90;99.90;;;;;;5090242;28;20919;-69
2023/06/03 07:58:18;;;;;;;3.47;2.33;;;18.70;99.90;;;;;;5090962;28;20484;-69
2023/06/03 08:00:49;;;;;;;2.93;2.23;;;18.80;99.90;;;;;;5090542;28;20444;-71
2023/06/03 08:03:18;;;;;;;3.23;2.20;;;18.80;99.90;;;;;;5090983;28;20436;-69
2023/06/03 08:05:48;;;;;;;2.93;2.20;;;19.00;99.90;;;;;;5090454;28;20440;-68
2023/06/03 08:08:16;;;;;;;4.50;2.57;;;19.20;99.90;;;;;;5090657;28;20448;-68
2023/06/03 08:10:45;;;;;;;2.80;1.90;;;19.00;96.70;;;;;;5090361;28;21018;-68
2023/06/03 08:13:13;;;;;;;3.30;2.10;;;19.00;97.00;;;;;;5091048;28;20466;-68
2023/06/03 08:15:41;;;;;;;4.40;2.40;;;18.90;97.30;;;;;;5090562;28;20523;-69
2023/06/03 08:18:09;;;;;;;2.60;1.80;;;19.00;98.70;;;;;;5090695;28;20503;-69
2023/06/03 08:20:37;;;;;;;2.30;2.07;;;19.20;93.40;;;;;;5090467;28;20451;-69
2023/06/03 08:23:05;;;;;;;4.17;2.50;;;19.30;92.50;;;;;;5090941;28;20440;-69
2023/06/03 08:25:32;;;;;;;4.50;2.30;;;19.40;90.60;;;;;;5090361;28;20436;-69
2023/06/03 08:27:59;;;;;;;2.60;2.20;;;19.40;90.10;;;;;;5090238;28;20480;-69
2023/06/03 08:30:25;;;;;;;2.13;1.80;;;19.50;85.50;;;;;;5090744;28;20444;-68
2023/06/03 08:32:55;;;;;;;2.63;2.10;;;19.60;84.60;;;;;;5090822;28;20773;-69
2023/06/03 08:35:22;;;;;;;2.50;1.83;;;19.70;81.80;;;;;;5090137;28;20448;-69
2023/06/03 08:37:49;;;;;;;3.63;2.40;;;19.80;80.60;;;;;;5090188;28;20480;-70
2023/06/03 08:40:17;;;;;;;3.73;2.00;;;19.60;76.10;;;;;;5090815;28;20448;-71
2023/06/03 08:42:47;;;;;;;3.57;2.40;;;19.60;75.80;;;;;;5090122;28;20444;-71
2023/06/03 08:45:14;;;;;;;2.57;2.20;;;19.80;78.10;;;;;;5091011;28;20433;-71
2023/06/03 08:48:12;;;;;;;3.13;2.50;;;19.90;71.30;;;;;;5090322;28;20445;-73
2023/06/03 08:50:45;;;;;;;3.20;2.60;;;20.10;70.20;;;;;;5090135;28;20479;-71
2023/06/03 08:53:13;;;;;;;2.83;2.30;;;20.20;67.50;;;;;;5090320;28;20444;-73
2023/06/03 08:55:40;;;;;;;2.27;2.07;;;20.30;67.20;;;;;;5089715;28;20444;-73
2023/06/03 08:58:13;;;;;;;4.27;2.30;;;20.40;63.30;;;;;;5087512;28;20480;-73
2023/06/03 09:00:41;;;;;;;3.30;2.30;;;20.30;64.10;;;;;;5086032;28;20440;-73
2023/06/03 09:03:12;;;;;;;2.33;2.13;;;20.40;59.80;;;;;;5088393;28;20433;-72
2023/06/03 09:05:40;;;;;;;3.60;2.10;;;20.50;54.80;;;;;;5088447;28;20440;-72
2023/06/03 09:08:07;;;;;;;4.00;2.23;;;20.60;51.10;;;;;;5089175;28;20505;-71
2023/06/03 09:10:34;;;;;;;2.60;1.93;;;20.60;48.90;;;;;;5089098;28;20445;-73
2023/06/03 09:13:02;;;;;;;6.20;2.67;;;20.50;51.60;;;;;;5086714;28;20466;-74
2023/06/03 09:15:30;;;;;;;2.70;2.20;;;20.50;49.20;;;;;;5086187;28;20476;-71
2023/06/03 09:17:57;;;;;;;2.70;1.93;;;20.90;50.40;;;;;;5089444;28;20835;-72
2023/06/03 09:20:25;;;;;;;3.27;2.53;;;20.80;48.50;;;;;;5089247;28;20449;-72
2023/06/03 09:22:53;;;;;;;3.43;2.77;;;21.20;42.50;;;;;;5089622;28;20457;-72
2023/06/03 09:25:20;;;;;;;2.13;1.93;;;21.50;40.80;;;;;;5089072;28;20552;-71
2023/06/03 09:27:47;;;;;;;3.40;2.53;;;21.50;32.90;;;;;;5089383;28;20488;-71
2023/06/03 09:30:14;;;;;;;4.00;2.40;;;21.40;31.60;;;;;;5090457;28;20444;-72
2023/06/03 09:32:42;;;;;;;4.30;2.90;;;21.60;29.50;;;;;;5089969;28;20497;-71
2023/06/03 09:35:09;;;;;;;3.73;2.67;;;21.80;27.80;;;;;;5085912;28;20452;-72
2023/06/03 09:37:37;;;;;;;3.00;2.10;;;21.80;26.10;;;;;;5078450;28;20492;-71
2023/06/03 09:40:09;;;;;;;3.60;2.50;;;21.90;22.10;;;;;;5087118;28;20453;-72
2023/06/03 09:42:42;;;;;;;2.33;2.13;;;21.70;26.50;;;;;;5087548;28;20938;-71
2023/06/03 09:45:23;;;;;;;3.97;2.57;;;21.70;22.40;;;;;;5087757;28;20606;-70
2023/06/03 09:47:50;;;;;;;2.93;2.43;;;21.80;17.90;;;;;;5086722;28;20459;-71
2023/06/03 09:50:17;;;;;;;4.30;2.20;;;21.90;15.10;;;;;;5085934;28;20444;-71
2023/06/03 09:52:45;;;;;;;3.20;2.60;;;22.10;14.60;;;;;;5087055;28;20544;-71
2023/06/03 09:55:13;;;;;;;3.57;2.23;;;22.20;11.90;;;;;;5087669;28;20449;-70
2023/06/03 09:57:40;;;;;;;3.10;2.33;;;22.30;9.20;;;;;;5087109;28;20480;-71
2023/06/03 10:00:10;;;;;;;3.47;2.80;;;22.40;8.10;;;;;;5087444;28;20452;-71
2023/06/03 10:02:38;;;;;;;2.97;2.20;;;22.50;3.90;;;;;;5087209;28;20534;-70
2023/06/03 10:05:05;;;;;;;2.80;2.40;;;22.30;3.20;;;;;;5089091;28;20458;-71
2023/06/03 10:07:33;;;;;;;3.30;2.17;;;22.50;1.40;;;;;;5090453;28;20547;-71
2023/06/03 10:10:10;;;;;;;4.00;2.90;;;22.70;1.00;;;;;;5090685;28;20448;-72
2023/06/03 10:12:37;;;;;;;2.60;2.10;;;22.70;1.00;;;;;;5092069;28;20440;-71
2023/06/03 10:15:04;;;;;;;3.00;2.30;;;22.80;1.00;;;;;;5086907;28;21585;-71
2023/06/03 10:17:31;;;;;;;3.40;2.70;;;22.90;1.00;;;;;;5088235;28;20460;-71
2023/06/03 10:19:58;;;;;;;5.43;4.00;;;23.10;1.00;;;;;;5086369;28;21028;-71
2023/06/03 10:22:26;;;;;;;4.90;3.17;;;23.00;1.00;;;;;;5073982;28;20461;-73
2023/06/03 10:24:56;;;;;;;3.90;2.57;;;23.30;1.00;;;;;;5089543;28;20447;-70
2023/06/03 10:27:24;;;;;;;3.03;2.73;;;23.30;1.00;;;;;;5090564;28;20797;-71
2023/06/03 10:29:54;;;;;;;3.00;2.70;;;23.60;1.00;;;;;;5085183;28;20762;-71
2023/06/03 10:32:23;;;;;;;3.40;2.90;;;23.60;1.00;;;;;;5087550;28;20467;-70
2023/06/03 10:34:51;;;;;;;2.77;2.07;;;23.50;1.00;;;;;;5090625;28;20456;-70
2023/06/03 10:37:18;;;;;;;3.13;2.73;;;23.60;1.00;;;;;;5083967;28;20472;-73
2023/06/03 10:39:45;;;;;;;2.97;2.40;;;23.80;1.00;;;;;;5080168;28;20461;-71
2023/06/03 10:42:13;;;;;;;2.60;2.10;;;23.80;1.00;;;;;;5084498;28;20463;-71
2023/06/03 10:44:42;;;;;;;3.03;2.40;;;;;;;;;;5086865;28;20457;-71
2023/06/03 10:47:11;;;;;;;3.87;2.87;;;;;;;;;;5079275;28;20951;-71
2023/06/03 10:49:39;;;;;;;3.13;2.67;;;;;;;;;;5087471;28;20451;-71
2023/06/03 10:52:25;;;;;;;5.30;3.13;;;;;;;;;;5085106;28;20498;-71
2023/06/03 10:54:56;;;;;;;2.90;2.50;;;;;;;;;;5078943;28;20455;-71
2023/06/03 10:57:26;;;;;;;3.03;2.50;;;;;;;;;;5084312;28;20460;-72
2023/06/03 10:59:55;;;;;;;4.67;2.77;;;;;;;;;;5080672;28;20453;-70
2023/06/03 11:02:22;;;;;;;6.20;2.90;;;;;;;;;;5087866;28;20451;-71
2023/06/03 11:04:49;;;;;;;3.53;2.67;;;;;;;;;;5083301;28;21021;-70
2023/06/03 11:07:35;;;;;;;3.33;2.43;;;;;;;;;;5080978;28;20480;-71
2023/06/03 11:10:02;;;;;;;2.60;2.40;;;;;;;;;;5081125;28;20452;-72
2023/06/03 11:12:44;;;;;;;4.10;3.00;;;;;;;;;;5077728;28;20548;-72
2023/06/03 11:15:12;;;;;;;3.37;2.43;;;;;;;;;;5089055;28;20451;-71
2023/06/03 11:17:42;;;;;;;3.80;3.10;;;;;;;;;;5088011;28;20793;-72
